createdAt,value
2023-04-09T00:03:58.413Z,8.68
2023-04-09T00:09:00.809Z,9.32
2023-04-09T00:14:02.809Z,9.60
2023-04-09T00:19:04.562Z,9.85
2023-04-09T00:24:06.468Z,9.30
2023-04-09T00:29:08.212Z,8.85
2023-04-09T00:34:10.412Z,8.98
2023-04-09T00:39:12.411Z,9.00
2023-04-09T00:44:14.352Z,8.52
2023-04-09T00:49:16.432Z,8.60
2023-04-09T00:54:18.862Z,8.57
2023-04-09T00:59:20.890Z,9.93
2023-04-09T01:04:24.812Z,9.88
2023-04-09T01:09:32.870Z,9.48
2023-04-09T01:14:57.815Z,11.13
2023-04-09T01:19:59.969Z,9.38
2023-04-09T01:25:18.255Z,8.82
2023-04-09T01:30:22.034Z,9.45
2023-04-09T01:35:26.686Z,10.40
2023-04-09T01:40:28.696Z,9.50
2023-04-09T01:45:30.556Z,10.98
2023-04-09T01:50:33.342Z,9.73
2023-04-09T01:55:35.558Z,8.65
2023-04-09T02:00:47.086Z,9.43
2023-04-09T02:06:12.847Z,10.13
2023-04-09T02:11:16.616Z,10.02
2023-04-09T02:16:19.481Z,10.43
2023-04-09T02:21:22.851Z,9.18
2023-04-09T02:26:24.813Z,10.40
2023-04-09T02:31:26.655Z,9.75
2023-04-09T02:36:29.072Z,9.80
2023-04-09T02:41:30.949Z,10.45
2023-04-09T02:46:32.898Z,11.50
2023-04-09T02:51:36.085Z,9.27
2023-04-09T02:56:38.177Z,10.20
2023-04-09T03:01:40.163Z,10.15
2023-04-09T03:06:42.073Z,11.13
2023-04-09T03:11:43.873Z,9.70
2023-04-09T03:16:45.672Z,9.35
2023-04-09T03:21:49.386Z,12.23
2023-04-09T03:26:53.682Z,10.90
2023-04-09T03:31:55.905Z,11.65
2023-04-09T03:36:58.549Z,10.27
2023-04-09T03:42:04.595Z,10.82
2023-04-09T03:47:17.641Z,10.65
2023-04-09T03:52:19.655Z,11.18
2023-04-09T03:57:29.335Z,10.18
2023-04-09T04:02:33.829Z,9.75
2023-04-09T04:07:39.377Z,11.77
2023-04-09T04:12:46.071Z,11.43
2023-04-09T04:18:01.346Z,10.18
2023-04-09T04:23:22.437Z,10.10
2023-04-09T04:28:38.510Z,11.35
2023-04-09T04:33:42.960Z,11.48
2023-04-09T04:38:50.685Z,11.48
2023-04-09T04:44:01.505Z,12.52
2023-04-09T04:49:03.594Z,12.38
2023-04-09T04:54:07.556Z,11.63
2023-04-09T04:59:09.671Z,11.18
2023-04-09T05:04:24.147Z,11.60
2023-04-09T05:09:26.410Z,10.20
2023-04-09T05:14:35.806Z,10.82
2023-04-09T05:19:37.719Z,11.77
2023-04-09T05:24:39.904Z,12.23
2023-04-09T05:29:42.222Z,11.80
2023-04-09T05:34:45.055Z,11.30
2023-04-09T05:39:47.073Z,11.80
2023-04-09T05:44:49.072Z,12.80
2023-04-09T05:49:54.658Z,12.77
2023-04-09T05:54:57.202Z,13.57
2023-04-09T06:00:08.486Z,13.07
2023-04-09T06:05:18.519Z,12.55
2023-04-09T06:10:22.165Z,12.57
2023-04-09T06:15:24.441Z,11.40
2023-04-09T06:20:26.290Z,12.02
2023-04-09T06:25:28.126Z,11.65
2023-04-09T06:30:31.990Z,11.88
2023-04-09T06:35:34.015Z,11.88
2023-04-09T06:40:39.292Z,11.48
2023-04-09T06:45:41.249Z,11.20
2023-04-09T06:50:44.436Z,12.55
2023-04-09T06:55:46.391Z,13.00
2023-04-09T07:00:48.270Z,12.07
2023-04-09T07:05:50.673Z,10.63
2023-04-09T07:10:52.818Z,12.02
2023-04-09T07:15:54.565Z,11.82
2023-04-09T07:20:56.429Z,10.68
2023-04-09T07:25:58.301Z,10.38
2023-04-09T07:31:04.985Z,11.40
2023-04-09T07:36:07.103Z,12.20
2023-04-09T07:41:11.639Z,11.95
2023-04-09T07:46:19.872Z,12.07
2023-04-09T07:51:22.244Z,11.15
2023-04-09T07:56:24.272Z,11.60
2023-04-09T08:01:26.659Z,11.25
2023-04-09T08:06:28.414Z,11.70
2023-04-09T08:11:30.623Z,10.65
2023-04-09T08:16:33.202Z,11.43
2023-04-09T08:21:38.431Z,10.48
2023-04-09T08:26:41.610Z,10.90
2023-04-09T08:31:43.603Z,8.68
2023-04-09T08:36:46.590Z,8.88
2023-04-09T08:41:48.700Z,8.73
2023-04-09T08:46:51.148Z,7.50
2023-04-09T08:51:52.980Z,8.48
2023-04-09T08:56:54.740Z,9.77
2023-04-09T09:02:11.334Z,10.90
2023-04-09T09:07:14.609Z,10.10
2023-04-09T09:12:41.516Z,11.27
2023-04-09T09:17:54.998Z,12.07
2023-04-09T09:22:57.075Z,11.98
2023-04-09T09:28:09.653Z,11.93
2023-04-09T09:33:12.318Z,10.82
2023-04-09T09:38:16.043Z,12.07
2023-04-09T09:43:18.096Z,10.18
2023-04-09T09:48:20.016Z,11.70
2023-04-09T09:53:24.780Z,10.50
2023-04-09T09:58:34.142Z,11.65
2023-04-09T10:03:39.761Z,10.82
2023-04-09T10:08:44.090Z,10.57
2023-04-09T10:13:58.620Z,10.93
2023-04-09T10:19:01.688Z,11.10
2023-04-09T10:24:06.595Z,10.95
2023-04-09T10:29:14.029Z,11.93
2023-04-09T10:34:24.055Z,11.98
2023-04-09T10:39:32.111Z,12.30
2023-04-09T10:44:36.391Z,11.90
2023-04-09T10:49:40.537Z,11.27
2023-04-09T10:54:46.746Z,11.75
2023-04-09T10:59:54.319Z,9.90
2023-04-09T11:05:23.294Z,10.73
2023-04-09T11:10:25.257Z,10.80
2023-04-09T11:15:27.412Z,9.48
2023-04-09T11:20:31.342Z,10.18
2023-04-09T11:25:35.390Z,10.30
2023-04-09T11:30:37.642Z,10.82
2023-04-09T11:35:39.703Z,12.27
2023-04-09T11:40:49.922Z,11.82
2023-04-09T11:45:52.137Z,12.73
2023-04-09T11:50:54.366Z,11.13
2023-04-09T11:55:56.459Z,10.27
2023-04-09T12:00:59.365Z,9.57
2023-04-09T12:06:03.112Z,10.07
2023-04-09T12:11:30.247Z,9.00
2023-04-09T12:16:35.906Z,8.25
2023-04-09T12:21:53.104Z,8.73
2023-04-09T12:26:54.971Z,8.38
2023-04-09T12:31:56.787Z,9.05
2023-04-09T12:36:58.642Z,8.40
2023-04-09T12:42:01.185Z,10.52
2023-04-09T12:47:03.014Z,10.88
2023-04-09T12:52:04.887Z,9.57
2023-04-09T12:57:07.047Z,11.82
2023-04-09T13:02:11.890Z,10.50
2023-04-09T13:07:16.122Z,11.45
2023-04-09T13:12:18.460Z,9.90
2023-04-09T13:17:20.412Z,9.35
2023-04-09T13:22:22.322Z,8.48
2023-04-09T13:27:24.241Z,8.60
2023-04-09T13:32:26.181Z,7.63
2023-04-09T13:37:28.091Z,8.95
2023-04-09T13:42:29.996Z,9.50
2023-04-09T13:47:31.957Z,9.50
2023-04-09T13:52:33.890Z,9.05
2023-04-09T13:57:35.802Z,8.73
2023-04-09T14:02:37.849Z,8.68
2023-04-09T14:07:39.706Z,9.18
2023-04-09T14:12:41.878Z,9.13
2023-04-09T14:17:44.175Z,8.57
2023-04-09T14:22:49.227Z,8.57
2023-04-09T14:27:52.204Z,8.88
2023-04-09T14:32:54.022Z,9.65
2023-04-09T14:37:55.966Z,9.45
2023-04-09T14:42:59.420Z,9.30
2023-04-09T14:48:01.420Z,10.23
2023-04-09T14:53:05.967Z,9.15
2023-04-09T14:58:08.280Z,8.60
2023-04-09T15:03:10.470Z,8.95
2023-04-09T15:08:13.358Z,7.43
2023-04-09T15:13:15.595Z,7.38
2023-04-09T15:18:17.773Z,7.85
2023-04-09T15:23:20.463Z,8.50
2023-04-09T15:28:22.227Z,7.55
2023-04-09T15:33:24.144Z,7.72
2023-04-09T15:38:26.219Z,7.45
2023-04-09T15:43:28.081Z,6.45
2023-04-09T15:48:29.942Z,6.60
2023-04-09T15:53:32.094Z,6.18
2023-04-09T15:58:34.130Z,6.95
2023-04-09T16:03:42.330Z,6.20
2023-04-09T16:08:44.291Z,5.93
2023-04-09T16:13:46.315Z,6.47
2023-04-09T16:18:48.130Z,5.43
2023-04-09T16:23:49.932Z,6.13
2023-04-09T16:28:52.029Z,4.97
2023-04-09T16:33:54.360Z,4.90
2023-04-09T16:38:56.317Z,5.05
2023-04-09T16:43:58.347Z,5.20
2023-04-09T16:49:00.357Z,5.20
2023-04-09T16:54:04.333Z,5.22
2023-04-09T16:59:06.111Z,5.97
2023-04-09T17:04:08.059Z,5.82
2023-04-09T17:09:09.952Z,5.95
2023-04-09T17:14:12.181Z,7.15
2023-04-09T17:19:14.072Z,6.50
2023-04-09T17:24:15.974Z,6.93
2023-04-09T17:29:20.695Z,8.13
2023-04-09T17:34:23.217Z,6.55
2023-04-09T17:39:25.225Z,6.50
2023-04-09T17:44:27.269Z,6.45
2023-04-09T17:49:32.637Z,6.68
2023-04-09T17:54:35.155Z,5.57
2023-04-09T17:59:38.209Z,6.07
2023-04-09T18:04:43.357Z,5.97
2023-04-09T18:09:45.331Z,7.90
2023-04-09T18:14:49.292Z,8.48
2023-04-09T18:19:54.528Z,7.63
2023-04-09T18:24:56.635Z,8.93
2023-04-09T18:29:59.375Z,7.43
2023-04-09T18:35:02.469Z,8.70
2023-04-09T18:40:04.735Z,7.90
2023-04-09T18:45:06.959Z,6.88
2023-04-09T18:50:09.633Z,7.47
2023-04-09T18:55:11.868Z,7.50
2023-04-09T19:00:14.250Z,7.97
2023-04-09T19:05:16.396Z,7.78
2023-04-09T19:10:18.240Z,8.88
2023-04-09T19:15:26.367Z,10.38
2023-04-09T19:20:28.815Z,10.63
2023-04-09T19:25:31.415Z,10.68
2023-04-09T19:30:33.204Z,10.23
2023-04-09T19:35:38.044Z,9.15
2023-04-09T19:40:39.849Z,9.52
2023-04-09T19:45:42.750Z,9.27
2023-04-09T19:50:45.438Z,9.35
2023-04-09T19:55:47.350Z,8.38
2023-04-09T20:00:49.974Z,9.70
2023-04-09T20:05:52.014Z,9.45
2023-04-09T20:10:55.008Z,10.25
2023-04-09T20:15:57.231Z,8.95
2023-04-09T20:20:59.296Z,9.02
2023-04-09T20:26:02.702Z,9.48
2023-04-09T20:31:05.149Z,10.77
2023-04-09T20:36:27.325Z,11.15
2023-04-09T20:41:29.770Z,12.23
2023-04-09T20:46:31.793Z,11.50
2023-04-09T20:51:33.869Z,10.27
2023-04-09T20:56:36.010Z,11.20
2023-04-09T21:01:37.944Z,10.43
2023-04-09T21:06:40.571Z,13.10
2023-04-09T21:11:42.348Z,11.75
2023-04-09T21:16:44.320Z,11.65
2023-04-09T21:21:46.306Z,10.93
2023-04-09T21:26:50.980Z,12.05
2023-04-09T21:31:54.244Z,13.57
2023-04-09T21:36:58.875Z,12.05
2023-04-09T21:42:00.714Z,14.02
2023-04-09T21:47:07.589Z,12.15
2023-04-09T21:52:14.893Z,12.65
2023-04-09T21:57:17.183Z,12.13
2023-04-09T22:02:19.271Z,11.82
2023-04-09T22:07:21.268Z,11.40
2023-04-09T22:12:23.234Z,11.60
2023-04-09T22:17:25.095Z,9.48
2023-04-09T22:22:27.256Z,10.82
2023-04-09T22:27:29.168Z,8.90
2023-04-09T22:32:33.538Z,10.75
2023-04-09T22:37:36.376Z,10.45
2023-04-09T22:42:40.150Z,9.27
2023-04-09T22:47:42.086Z,9.15
2023-04-09T22:52:44.156Z,10.02
2023-04-09T22:57:46.168Z,10.13
2023-04-09T23:02:48.162Z,9.60
2023-04-09T23:07:51.452Z,9.68
2023-04-09T23:12:53.372Z,9.02
2023-04-09T23:17:55.587Z,7.45
2023-04-09T23:22:57.666Z,7.60
2023-04-09T23:27:59.562Z,8.13
2023-04-09T23:33:01.543Z,8.32
2023-04-09T23:38:03.531Z,8.35
2023-04-09T23:43:05.493Z,8.18
2023-04-09T23:48:08.976Z,8.40
2023-04-09T23:53:11.038Z,8.57
2023-04-09T23:58:14.271Z,9.32
